Time;durP1;ratioP1;P1;durP2;ratioP2;P2;SDS_P1;SDS_P2;PMS_P1;PMS_P2;Temp;Humidity;BMP_temperature;BMP_pressure;BME280_temperature;BME280_humidity;BME280_pressure;Samples;Min_cycle;Max_cycle;Signal;HPM_P1;HPM_P2
2022/01/04 00:01:32;;;;;;;0.70;0.38;;;18.80;71.40;;;;;;5009028;28;44791;-85
2022/01/04 00:16:58;;;;;;;0.60;0.40;;;18.60;71.70;;;;;;5016395;28;44740;-87
2022/01/04 00:20:02;;;;;;;0.90;0.52;;;19.10;68.90;;;;;;5025253;28;45242;-86
2022/01/04 00:22:42;;;;;;;0.50;0.30;;;19.30;69.30;;;;;;4992229;28;45692;-86
2022/01/04 00:25:29;;;;;;;0.40;0.40;;;18.20;70.50;;;;;;5024246;28;45244;-86
2022/01/04 00:28:10;;;;;;;0.30;0.30;;;18.60;69.00;;;;;;5025037;28;45428;-85
2022/01/04 00:36:35;;;;;;;0.50;0.40;;;17.00;68.70;;;;;;5025870;28;45166;-87
2022/01/04 00:39:15;;;;;;;0.63;0.35;;;19.00;72.90;;;;;;5026990;28;44961;-87
2022/01/04 00:42:14;;;;;;;0.57;0.38;;;18.80;70.50;;;;;;5040132;28;45484;-87
2022/01/04 00:50:09;;;;;;;0.65;0.20;;;19.60;75.40;;;;;;5020977;28;45294;-83
2022/01/04 00:52:38;;;;;;;1.65;0.35;;;18.70;70.10;;;;;;5018869;28;45321;-83
2022/01/04 00:55:12;;;;;;;0.55;0.28;;;18.70;70.30;;;;;;5015258;28;47429;-86
2022/01/04 01:00:28;;;;;;;0.35;0.17;;;18.70;71.70;;;;;;5017309;28;45337;-86
2022/01/04 01:03:00;;;;;;;0.30;0.17;;;18.60;70.90;;;;;;5020689;28;45058;-86
2022/01/04 01:05:33;;;;;;;0.70;0.40;;;18.70;70.60;;;;;;5003697;28;46376;-85
2022/01/04 01:08:05;;;;;;;0.38;0.30;;;18.60;74.50;;;;;;5022001;28;45011;-85
2022/01/04 01:10:47;;;;;;;0.30;0.20;;;18.80;73.70;;;;;;5001980;28;45192;-84
2022/01/04 01:13:21;;;;;;;0.40;0.20;;;18.80;72.70;;;;;;5016296;28;45321;-84
2022/01/04 01:15:50;;;;;;;0.35;0.30;;;20.40;71.70;;;;;;5023010;28;45739;-84
2022/01/04 01:18:23;;;;;;;0.55;0.32;;;18.70;73.80;;;;;;5019453;28;45444;-88
2022/01/04 01:20:56;;;;;;;0.43;0.28;;;18.60;69.40;;;;;;5018532;28;45320;-87
2022/01/04 01:23:27;;;;;;;0.43;0.20;;;18.60;72.00;;;;;;5029529;28;45282;-87
2022/01/04 01:25:59;;;;;;;0.70;0.45;;;18.70;70.90;;;;;;5019626;28;46674;-86
2022/01/04 01:28:27;;;;;;;0.30;0.30;;;18.70;71.50;;;;;;5019744;28;45526;-85
2022/01/04 01:30:56;;;;;;;0.35;0.30;;;18.70;72.10;;;;;;5003662;28;45360;-86
2022/01/04 01:33:31;;;;;;;0.35;0.35;;;19.50;75.10;;;;;;5020418;28;45068;-85
2022/01/04 01:36:07;;;;;;;0.35;0.20;;;18.90;74.20;;;;;;5022333;28;48578;-85
2022/01/04 01:39:03;;;;;;;0.20;0.20;;;18.80;72.70;;;;;;5018817;28;45296;-87
2022/01/04 01:41:38;;;;;;;0.22;0.20;;;17.20;69.10;;;;;;4999791;28;45164;-87
2022/01/04 01:44:09;;;;;;;0.47;0.30;;;18.70;70.10;;;;;;5007263;28;45206;-86
2022/01/04 01:46:37;;;;;;;0.55;0.45;;;18.90;76.00;;;;;;5020433;28;47688;-86
2022/01/04 01:49:07;;;;;;;0.57;0.30;;;18.70;72.20;;;;;;5019950;28;45226;-86
2022/01/04 01:51:39;;;;;;;0.30;0.30;;;18.60;72.60;;;;;;5020596;28;45489;-85
2022/01/04 01:54:14;;;;;;;0.55;0.30;;;18.90;72.60;;;;;;5002976;28;45348;-85
2022/01/04 01:56:45;;;;;;;0.52;0.20;;;19.80;71.50;;;;;;5019372;28;47594;-86
2022/01/04 01:59:19;;;;;;;0.70;0.30;;;18.80;71.80;;;;;;5019411;28;45420;-88
2022/01/04 02:01:51;;;;;;;0.57;0.47;;;18.70;70.00;;;;;;5001577;28;45120;-87
2022/01/04 02:04:27;;;;;;;0.35;0.20;;;18.50;70.30;;;;;;5018602;28;45049;-87
2022/01/04 02:06:59;;;;;;;0.40;0.30;;;18.60;72.70;;;;;;5008522;28;45724;-86
2022/01/04 02:09:50;;;;;;;1.33;0.38;;;18.50;68.80;;;;;;5021103;28;45292;-86
2022/01/04 02:12:22;;;;;;;0.20;0.20;;;18.90;74.30;;;;;;5021649;28;45203;-86
2022/01/04 02:14:51;;;;;;;0.93;0.30;;;21.10;77.10;;;;;;5020194;28;45307;-85
2022/01/04 02:17:20;;;;;;;0.52;0.28;;;20.10;75.50;;;;;;5020447;28;45844;-86
2022/01/04 02:20:01;;;;;;;0.43;0.30;;;21.00;76.50;;;;;;5018889;28;45548;-88
2022/01/04 02:22:32;;;;;;;0.35;0.20;;;21.20;74.10;;;;;;5022839;28;45246;-87
2022/01/04 02:25:02;;;;;;;1.17;0.32;;;19.40;74.20;;;;;;5017798;28;45134;-86
2022/01/04 02:27:46;;;;;;;0.28;0.28;;;18.80;70.70;;;;;;5018506;28;48145;-87
2022/01/04 02:30:19;;;;;;;0.20;0.20;;;18.60;70.00;;;;;;5012918;28;45221;-86
2022/01/04 02:32:51;;;;;;;0.47;0.30;;;19.60;74.70;;;;;;5019108;28;45350;-86
2022/01/04 02:35:24;;;;;;;0.60;0.20;;;19.50;74.50;;;;;;5013162;28;45163;-85
2022/01/04 02:37:57;;;;;;;0.30;0.20;;;18.70;72.40;;;;;;5001671;28;47384;-86
2022/01/04 02:43:20;;;;;;;0.25;0.22;;;18.70;73.30;;;;;;5016667;28;45186;-88
2022/01/04 02:45:51;;;;;;;0.20;0.20;;;18.60;69.10;;;;;;5018796;28;45123;-86
2022/01/04 02:48:19;;;;;;;0.50;0.30;;;18.80;71.30;;;;;;5015525;28;45641;-86
2022/01/04 02:50:51;;;;;;;0.40;0.20;;;20.40;71.50;;;;;;5000155;28;45298;-86
2022/01/04 02:53:20;;;;;;;0.35;0.10;;;19.10;72.80;;;;;;5018881;28;44823;-85
2022/01/04 02:55:48;;;;;;;0.20;0.20;;;18.60;73.70;;;;;;5028683;28;45343;-85
2022/01/04 02:58:21;;;;;;;0.40;0.30;;;18.50;73.10;;;;;;5024170;28;47280;-85
2022/01/04 03:00:51;;;;;;;0.28;0.20;;;18.70;70.40;;;;;;5016660;28;45124;-88
2022/01/04 03:03:31;;;;;;;0.40;0.32;;;18.60;67.80;;;;;;5036966;28;45164;-88
2022/01/04 03:06:12;;;;;;;0.28;0.20;;;18.40;70.50;;;;;;5016067;28;45173;-86
2022/01/04 03:08:43;;;;;;;0.47;0.30;;;18.50;71.00;;;;;;5010073;28;47685;-87
2022/01/04 03:11:14;;;;;;;0.20;0.20;;;18.60;73.30;;;;;;5013354;28;44982;-86
2022/01/04 03:13:45;;;;;;;0.60;0.30;;;18.00;70.30;;;;;;5020154;28;45157;-85
2022/01/04 03:16:13;;;;;;;0.30;0.20;;;18.90;73.60;;;;;;5020485;28;45218;-85
2022/01/04 03:19:02;;;;;;;0.40;0.28;;;20.00;73.20;;;;;;5008785;28;46133;-87
2022/01/04 03:21:51;;;;;;;0.30;0.30;;;18.70;70.10;;;;;;5017919;28;45419;-87
2022/01/04 03:24:21;;;;;;;0.20;0.20;;;18.60;68.00;;;;;;5016764;28;45173;-86
2022/01/04 03:26:58;;;;;;;0.50;0.20;;;18.90;71.20;;;;;;5018624;28;45023;-86
2022/01/04 03:29:41;;;;;;;0.20;0.20;;;18.90;68.70;;;;;;5007259;28;45615;-87
2022/01/04 03:32:35;;;;;;;0.57;0.35;;;18.80;68.40;;;;;;5025020;28;45285;-85
2022/01/04 03:44:51;;;;;;;0.22;0.22;;;18.70;67.00;;;;;;5021662;28;44896;-87
2022/01/04 03:48:01;;;;;;;0.73;0.28;;;17.50;66.90;;;;;;5018365;28;45338;-86
2022/01/04 03:50:51;;;;;;;0.20;0.20;;;18.70;67.50;;;;;;5004747;28;45218;-86
2022/01/04 03:53:42;;;;;;;0.22;0.22;;;18.70;66.80;;;;;;5007486;28;45646;-87
2022/01/04 03:56:33;;;;;;;0.57;0.30;;;18.70;66.40;;;;;;5006468;28;45427;-88
2022/01/04 03:59:48;;;;;;;0.25;0.20;;;18.80;70.20;;;;;;5007616;28;45115;-88
2022/01/04 04:02:18;;;;;;;0.13;0.13;;;18.90;68.20;;;;;;5000349;28;45453;-87
2022/01/04 04:04:48;;;;;;;0.43;0.17;;;18.80;68.00;;;;;;5016681;28;45604;-86
2022/01/04 04:07:20;;;;;;;0.25;0.20;;;18.80;70.40;;;;;;5020857;28;45249;-85
2022/01/04 04:09:56;;;;;;;0.28;0.10;;;18.80;67.30;;;;;;5020507;28;45124;-86
2022/01/04 04:12:24;;;;;;;0.40;0.30;;;20.90;74.90;;;;;;5016492;28;45416;-85
2022/01/04 04:14:53;;;;;;;0.20;0.20;;;19.80;69.40;;;;;;5030592;28;47565;-86
2022/01/04 04:17:22;;;;;;;0.38;0.10;;;16.30;68.20;;;;;;5018976;28;45488;-88
2022/01/04 04:19:56;;;;;;;0.20;0.20;;;18.90;71.00;;;;;;5019944;28;45226;-88
2022/01/04 04:28:12;;;;;;;0.47;0.20;;;19.00;69.30;;;;;;5027522;28;44841;-86
2022/01/04 04:30:44;;;;;;;0.65;0.30;;;19.10;66.80;;;;;;5027822;28;44618;-86
2022/01/04 04:33:31;;;;;;;0.93;0.22;;;19.20;67.80;;;;;;5028155;28;45383;-85
2022/01/04 04:36:37;;;;;;;0.35;0.20;;;17.20;64.80;;;;;;5028469;28;47730;-88
2022/01/04 04:39:09;;;;;;;0.38;0.20;;;19.10;66.40;;;;;;5001131;28;45445;-87
2022/01/04 04:41:41;;;;;;;0.17;0.17;;;19.00;67.70;;;;;;5032479;28;45096;-88
2022/01/04 04:44:14;;;;;;;0.82;0.30;;;19.00;66.40;;;;;;5002775;28;45338;-87
2022/01/04 04:46:44;;;;;;;1.17;0.30;;;18.60;67.00;;;;;;5018492;28;46924;-86
2022/01/04 04:49:15;;;;;;;0.70;0.43;;;19.30;69.60;;;;;;5020628;28;45167;-86
2022/01/04 04:51:46;;;;;;;0.43;0.40;;;21.20;71.40;;;;;;5012222;28;45318;-85
2022/01/04 04:54:19;;;;;;;0.40;0.40;;;18.90;69.00;;;;;;5001877;28;45366;-85
2022/01/04 04:56:50;;;;;;;0.73;0.40;;;18.50;68.70;;;;;;5001316;28;46625;-87
2022/01/04 04:59:22;;;;;;;0.50;0.30;;;18.80;69.20;;;;;;5019112;28;45388;-88
2022/01/04 05:01:53;;;;;;;0.77;0.45;;;18.90;69.70;;;;;;5026320;28;45147;-86
2022/01/04 05:04:26;;;;;;;0.40;0.40;;;18.80;69.80;;;;;;5018788;28;45056;-86
2022/01/04 05:06:57;;;;;;;0.08;0.08;;;18.60;70.60;;;;;;5020189;28;47725;-86
2022/01/04 05:09:29;;;;;;;0.32;0.32;;;19.10;69.40;;;;;;5021562;28;45151;-85
2022/01/04 05:11:58;;;;;;;0.40;0.40;;;19.10;70.20;;;;;;5021198;28;45241;-85
2022/01/04 05:14:28;;;;;;;0.70;0.40;;;17.60;70.50;;;;;;5022070;28;45524;-87
2022/01/04 05:19:31;;;;;;;1.05;0.43;;;18.70;68.40;;;;;;5048139;28;44653;-88
2022/01/04 05:21:58;;;;;;;0.85;0.60;;;18.60;71.40;;;;;;5052739;28;44771;-87
2022/01/04 05:24:27;;;;;;;0.80;0.35;;;18.40;73.30;;;;;;5052386;28;44747;-87
2022/01/04 05:26:55;;;;;;;0.60;0.40;;;20.10;72.60;;;;;;5053002;28;45256;-86
2022/01/04 05:29:23;;;;;;;0.30;0.30;;;18.50;73.40;;;;;;5053395;28;44800;-86
2022/01/04 05:31:50;;;;;;;1.30;0.50;;;18.90;71.30;;;;;;5052718;28;44713;-86
2022/01/04 05:34:21;;;;;;;0.60;0.40;;;18.60;71.50;;;;;;5036442;28;44880;-86
2022/01/04 05:36:51;;;;;;;0.55;0.47;;;20.50;73.80;;;;;;5052921;28;46770;-86
2022/01/04 05:39:20;;;;;;;0.55;0.43;;;18.60;68.90;;;;;;5051206;28;45103;-87
2022/01/04 05:41:52;;;;;;;0.45;0.30;;;18.90;72.70;;;;;;5049693;28;45016;-88
2022/01/04 05:44:21;;;;;;;0.75;0.50;;;17.40;70.80;;;;;;5052733;28;44715;-87
2022/01/04 05:46:49;;;;;;;0.85;0.45;;;18.70;72.70;;;;;;5043379;28;47564;-87
2022/01/04 05:49:19;;;;;;;0.35;0.35;;;17.20;71.90;;;;;;5027763;28;44714;-87
2022/01/04 05:51:48;;;;;;;0.60;0.40;;;18.70;73.80;;;;;;5052708;28;44648;-86
2022/01/04 05:54:15;;;;;;;0.70;0.40;;;18.90;74.30;;;;;;5052517;28;44779;-86
2022/01/04 05:56:43;;;;;;;0.47;0.40;;;18.80;73.30;;;;;;5050465;28;45522;-86
2022/01/04 05:59:12;;;;;;;1.70;0.70;;;18.70;70.60;;;;;;5052008;28;44604;-86
2022/01/04 06:01:40;;;;;;;0.60;0.40;;;20.20;73.60;;;;;;5057081;28;44820;-86
2022/01/04 06:04:10;;;;;;;0.40;0.35;;;17.40;71.90;;;;;;5069007;28;44718;-86
2022/01/04 06:06:39;;;;;;;0.40;0.40;;;18.70;73.20;;;;;;5051893;28;45704;-86
2022/01/04 06:09:16;;;;;;;0.32;0.32;;;18.90;73.50;;;;;;5051236;28;44776;-86
2022/01/04 06:11:57;;;;;;;0.38;0.38;;;18.70;74.70;;;;;;5035742;28;45038;-86
2022/01/04 06:17:14;;;;;;;0.68;0.45;;;19.20;73.50;;;;;;5045457;28;44969;-86
2022/01/04 06:19:42;;;;;;;0.50;0.50;;;18.80;74.10;;;;;;5051720;28;45306;-87
2022/01/04 06:22:14;;;;;;;0.45;0.45;;;19.40;74.60;;;;;;5051334;28;44760;-86
2022/01/04 06:24:41;;;;;;;0.30;0.30;;;18.60;75.40;;;;;;5049993;28;44771;-86
2022/01/04 06:27:10;;;;;;;0.65;0.40;;;18.60;75.30;;;;;;5050807;28;46452;-86
2022/01/04 06:29:42;;;;;;;1.38;0.50;;;21.10;75.00;;;;;;5051116;28;44763;-85
2022/01/04 06:32:11;;;;;;;0.55;0.40;;;20.60;75.30;;;;;;5052519;28;44715;-86
2022/01/04 06:34:42;;;;;;;0.80;0.50;;;20.00;71.60;;;;;;5051414;28;44775;-86
2022/01/04 06:37:13;;;;;;;0.38;0.38;;;19.00;73.70;;;;;;5048213;28;45759;-86
2022/01/04 06:39:41;;;;;;;0.52;0.52;;;18.90;72.20;;;;;;5046877;28;45133;-86
2022/01/04 06:42:09;;;;;;;0.88;0.45;;;19.80;74.90;;;;;;5050866;28;44793;-88
2022/01/04 06:44:45;;;;;;;0.50;0.50;;;18.90;75.00;;;;;;5050521;28;45437;-87
2022/01/04 06:47:14;;;;;;;0.93;0.60;;;18.80;71.80;;;;;;5057323;28;45626;-86
2022/01/04 06:49:41;;;;;;;0.80;0.50;;;18.70;76.50;;;;;;5050815;28;44982;-86
2022/01/04 06:52:11;;;;;;;0.70;0.70;;;19.60;74.90;;;;;;5051575;28;45017;-88
2022/01/04 06:54:39;;;;;;;0.60;0.40;;;18.70;74.50;;;;;;5050995;28;44799;-88
2022/01/04 06:57:07;;;;;;;0.60;0.47;;;18.70;72.20;;;;;;5049470;28;45603;-86
2022/01/04 06:59:35;;;;;;;0.60;0.60;;;18.60;73.00;;;;;;5051185;28;45191;-86
2022/01/04 07:02:05;;;;;;;0.60;0.60;;;19.20;76.20;;;;;;5056174;28;44783;-85
2022/01/04 07:04:34;;;;;;;2.35;0.82;;;18.60;69.90;;;;;;5050437;28;45029;-85
2022/01/04 07:07:04;;;;;;;0.90;0.80;;;20.00;71.80;;;;;;5042949;28;46978;-85
2022/01/04 07:09:35;;;;;;;0.55;0.47;;;20.90;74.30;;;;;;5051525;28;44823;-85
2022/01/04 07:12:04;;;;;;;2.05;1.27;;;18.60;74.70;;;;;;5042837;28;44739;-85
2022/01/04 07:14:32;;;;;;;1.10;1.00;;;18.70;71.50;;;;;;5051737;28;44805;-86
2022/01/04 07:17:00;;;;;;;1.80;0.95;;;18.60;72.40;;;;;;5046057;28;46262;-86
2022/01/04 07:19:31;;;;;;;1.92;1.20;;;18.90;74.30;;;;;;5049657;28;44792;-86
2022/01/04 07:22:01;;;;;;;1.85;1.10;;;18.70;71.70;;;;;;5052250;28;44672;-88
2022/01/04 07:24:33;;;;;;;1.63;1.10;;;19.10;71.30;;;;;;5051911;28;44909;-88
2022/01/04 07:27:00;;;;;;;1.42;1.20;;;18.60;71.20;;;;;;5043477;28;45864;-88
2022/01/04 07:29:28;;;;;;;1.35;1.10;;;18.70;68.40;;;;;;5050159;28;45261;-87
2022/01/04 07:31:56;;;;;;;2.25;1.38;;;18.90;72.70;;;;;;5050459;28;44966;-88
2022/01/04 07:34:24;;;;;;;1.60;1.13;;;18.60;73.50;;;;;;5045031;28;44787;-87
2022/01/04 07:36:53;;;;;;;1.90;1.20;;;18.40;73.90;;;;;;5035756;28;46582;-87
2022/01/04 07:39:24;;;;;;;1.95;1.10;;;19.20;74.70;;;;;;5047204;28;44695;-86
2022/01/04 07:41:52;;;;;;;2.38;1.20;;;20.50;74.90;;;;;;5047927;28;44712;-87
2022/01/04 07:44:20;;;;;;;3.60;1.17;;;20.40;75.60;;;;;;5050439;28;44747;-87
2022/01/04 07:46:51;;;;;;;1.23;1.02;;;20.30;76.10;;;;;;5043444;28;47992;-88
2022/01/04 07:49:18;;;;;;;2.08;0.77;;;18.30;73.10;;;;;;5045721;28;44796;-89
2022/01/04 07:51:47;;;;;;;1.30;1.10;;;20.40;76.10;;;;;;5041129;28;44630;-88
2022/01/04 07:54:16;;;;;;;0.90;0.80;;;18.30;73.60;;;;;;5049692;28;44857;-87
2022/01/04 07:56:49;;;;;;;1.63;1.30;;;18.60;75.30;;;;;;5051055;28;46722;-89
2022/01/04 07:59:17;;;;;;;1.15;0.90;;;19.60;70.50;;;;;;5045438;28;44712;-86
2022/01/04 08:01:44;;;;;;;1.52;1.17;;;20.50;73.50;;;;;;5047640;28;44782;-86
2022/01/04 08:04:13;;;;;;;1.15;0.90;;;18.70;73.40;;;;;;5051897;28;45893;-89
2022/01/04 08:06:42;;;;;;;1.70;0.88;;;18.60;69.20;;;;;;5050383;28;46673;-88
2022/01/04 08:09:10;;;;;;;1.20;0.90;;;18.60;70.00;;;;;;5050227;28;44927;-88
2022/01/04 08:11:38;;;;;;;1.08;0.82;;;18.70;74.60;;;;;;5050284;28;44731;-87
2022/01/04 08:14:08;;;;;;;1.23;0.88;;;20.70;77.20;;;;;;5051089;28;44796;-86
2022/01/04 08:16:42;;;;;;;1.40;0.98;;;21.20;78.40;;;;;;5043141;28;46806;-86
2022/01/04 08:19:12;;;;;;;1.40;0.90;;;18.90;71.00;;;;;;5046157;28;44958;-88
2022/01/04 08:21:39;;;;;;;1.40;0.88;;;18.10;71.80;;;;;;5042698;28;44633;-87
2022/01/04 08:24:10;;;;;;;1.50;0.95;;;18.90;75.10;;;;;;5045269;28;44839;-87
2022/01/04 08:26:38;;;;;;;0.82;0.80;;;18.60;70.80;;;;;;5046588;28;47530;-86
2022/01/04 08:29:08;;;;;;;1.15;0.70;;;18.30;75.40;;;;;;5041831;28;44757;-86
2022/01/04 08:31:36;;;;;;;2.30;0.68;;;18.70;70.90;;;;;;5042131;28;44563;-85
2022/01/04 08:34:04;;;;;;;1.05;0.85;;;18.60;70.60;;;;;;5047864;28;44921;-85
2022/01/04 08:36:32;;;;;;;0.80;0.80;;;18.60;72.60;;;;;;5031467;28;46367;-86
2022/01/04 08:39:01;;;;;;;0.73;0.70;;;19.00;75.40;;;;;;5049672;28;46194;-86
2022/01/04 08:41:33;;;;;;;1.17;0.70;;;19.00;74.50;;;;;;5050041;28;44760;-87
2022/01/04 08:44:02;;;;;;;0.75;0.65;;;18.70;70.80;;;;;;5042431;28;44712;-86
2022/01/04 08:46:35;;;;;;;0.88;0.70;;;18.50;74.70;;;;;;5041148;28;46328;-86
2022/01/04 08:49:06;;;;;;;3.63;0.80;;;18.70;71.20;;;;;;5050680;28;44625;-86
2022/01/04 08:51:33;;;;;;;2.10;0.85;;;18.90;73.90;;;;;;5050501;28;44780;-86
2022/01/04 08:54:01;;;;;;;1.20;0.70;;;18.70;74.70;;;;;;5053077;28;44927;-87
2022/01/04 08:56:30;;;;;;;0.70;0.55;;;18.50;74.80;;;;;;5053639;28;46635;-87
2022/01/04 08:58:59;;;;;;;2.00;0.80;;;20.20;75.50;;;;;;5053145;28;44965;-87
2022/01/04 09:01:27;;;;;;;0.98;0.80;;;18.80;75.50;;;;;;5052685;28;44648;-86
2022/01/04 09:04:01;;;;;;;0.65;0.60;;;18.50;75.00;;;;;;5054137;28;44737;-86
2022/01/04 09:06:29;;;;;;;0.93;0.55;;;19.00;76.50;;;;;;5053073;28;47217;-87
2022/01/04 09:08:59;;;;;;;0.50;0.50;;;18.90;76.40;;;;;;5052969;28;44759;-87
2022/01/04 09:11:27;;;;;;;0.60;0.52;;;18.60;76.40;;;;;;5035692;28;44658;-87
2022/01/04 09:14:10;;;;;;;1.25;0.75;;;20.30;77.80;;;;;;5053562;28;44885;-86
2022/01/04 09:19:29;;;;;;;1.23;0.70;;;20.20;76.40;;;;;;5045032;28;44716;-86
2022/01/04 09:22:00;;;;;;;0.70;0.55;;;18.60;75.70;;;;;;5053159;28;44531;-86
2022/01/04 09:24:30;;;;;;;0.98;0.70;;;19.80;76.80;;;;;;5052201;28;44867;-85
2022/01/04 09:26:59;;;;;;;0.57;0.55;;;18.80;73.80;;;;;;5052327;28;46539;-85
2022/01/04 09:29:27;;;;;;;0.82;0.60;;;18.70;73.50;;;;;;5053098;28;45464;-85
2022/01/04 09:31:55;;;;;;;0.65;0.50;;;18.70;72.70;;;;;;5053269;28;44707;-85
2022/01/04 09:34:24;;;;;;;0.98;0.65;;;18.70;75.60;;;;;;5053364;28;44952;-85
2022/01/04 09:36:52;;;;;;;0.30;0.30;;;18.40;72.60;;;;;;5034234;28;46276;-86
2022/01/04 09:39:22;;;;;;;0.50;0.40;;;18.70;76.50;;;;;;5052962;28;44637;-85
2022/01/04 09:41:50;;;;;;;0.47;0.38;;;18.50;75.50;;;;;;5050815;28;44629;-86
2022/01/04 09:44:18;;;;;;;0.68;0.43;;;20.90;76.60;;;;;;5053453;28;44863;-88
2022/01/04 09:46:46;;;;;;;1.33;0.50;;;18.50;74.10;;;;;;5052253;28;47287;-85
2022/01/04 09:49:14;;;;;;;0.50;0.50;;;18.90;75.80;;;;;;5052777;28;44871;-78
2022/01/04 09:51:44;;;;;;;2.92;0.40;;;18.60;72.60;;;;;;5052281;28;44588;-83
2022/01/04 09:54:13;;;;;;;1.92;0.60;;;18.70;72.40;;;;;;5054007;28;44637;-83
2022/01/04 09:56:42;;;;;;;1.35;0.60;;;19.00;75.40;;;;;;5053621;28;47644;-83
2022/01/04 09:59:10;;;;;;;0.60;0.40;;;19.00;71.90;;;;;;5046617;28;44807;-84
2022/01/04 10:01:55;;;;;;;0.63;0.45;;;20.40;76.80;;;;;;5052499;28;44680;-84
2022/01/04 10:04:25;;;;;;;0.50;0.40;;;19.90;72.70;;;;;;5045194;28;44977;-85
2022/01/04 10:07:07;;;;;;;0.70;0.60;;;19.20;77.90;;;;;;5051837;28;47453;-88
2022/01/04 10:09:44;;;;;;;1.35;0.50;;;18.60;73.70;;;;;;5048318;28;45241;-84
2022/01/04 10:12:13;;;;;;;1.13;0.60;;;18.90;75.60;;;;;;5053299;28;44657;-84
2022/01/04 10:14:43;;;;;;;0.55;0.38;;;19.00;72.20;;;;;;5052660;28;44790;-83
2022/01/04 10:17:13;;;;;;;0.88;0.50;;;17.90;70.10;;;;;;5052293;28;45763;-84
2022/01/04 10:19:43;;;;;;;0.57;0.43;;;19.20;74.30;;;;;;5053058;28;44720;-85
2022/01/04 10:22:17;;;;;;;0.25;0.25;;;18.90;75.70;;;;;;5052413;28;44773;-86
2022/01/04 10:24:49;;;;;;;0.82;0.70;;;18.70;70.40;;;;;;5051592;28;44773;-87
2022/01/04 10:27:28;;;;;;;1.02;0.60;;;19.00;73.80;;;;;;5052962;28;45766;-86
2022/01/04 10:30:20;;;;;;;0.40;0.40;;;19.00;70.50;;;;;;5052036;28;44873;-86
2022/01/04 10:33:23;;;;;;;1.33;0.60;;;19.00;71.30;;;;;;5050024;28;44763;-87
2022/01/04 10:35:52;;;;;;;1.05;0.52;;;18.70;70.10;;;;;;5042114;28;44708;-86
2022/01/04 10:38:24;;;;;;;0.90;0.50;;;19.20;74.90;;;;;;5031616;28;46543;-86
2022/01/04 10:40:57;;;;;;;1.02;0.60;;;18.90;73.10;;;;;;5051230;28;44791;-85
2022/01/04 10:43:28;;;;;;;1.08;0.60;;;18.70;73.90;;;;;;5036935;28;44729;-87
2022/01/04 10:45:57;;;;;;;1.05;0.65;;;18.80;75.30;;;;;;5052262;28;44781;-85
2022/01/04 10:48:27;;;;;;;0.85;0.70;;;20.80;76.80;;;;;;5049209;28;45779;-85
2022/01/04 10:50:59;;;;;;;0.68;0.50;;;18.60;73.30;;;;;;5051840;28;45455;-84
2022/01/04 10:53:30;;;;;;;0.77;0.47;;;19.10;73.60;;;;;;5034195;28;44761;-85
2022/01/04 10:56:01;;;;;;;0.73;0.52;;;20.50;74.60;;;;;;5042906;28;44717;-85
2022/01/04 10:58:32;;;;;;;1.05;0.63;;;19.00;71.40;;;;;;5042178;28;47668;-86
2022/01/04 11:01:04;;;;;;;1.95;0.70;;;18.80;70.30;;;;;;5047302;28;45012;-86
2022/01/04 11:03:34;;;;;;;2.95;0.68;;;18.60;74.50;;;;;;5054309;28;44866;-86
2022/01/04 11:06:07;;;;;;;0.80;0.60;;;19.80;76.10;;;;;;5049676;28;45200;-86
2022/01/04 11:08:40;;;;;;;0.93;0.68;;;18.60;69.80;;;;;;5047637;28;46971;-85
2022/01/04 11:11:14;;;;;;;0.80;0.70;;;18.80;73.70;;;;;;5051565;28;45880;-83
2022/01/04 11:13:45;;;;;;;1.83;0.90;;;18.90;74.80;;;;;;5051114;28;44731;-84
2022/01/04 11:16:18;;;;;;;0.90;0.68;;;20.50;72.80;;;;;;5050943;28;44871;-85
2022/01/04 11:18:50;;;;;;;0.93;0.57;;;18.80;70.50;;;;;;5048547;28;47123;-85
2022/01/04 11:21:21;;;;;;;0.65;0.57;;;18.70;76.00;;;;;;5035634;28;45839;-85
2022/01/04 11:23:53;;;;;;;0.82;0.57;;;18.60;73.30;;;;;;5054525;28;44662;-84
2022/01/04 11:26:22;;;;;;;0.82;0.70;;;18.50;73.70;;;;;;5048205;28;44716;-84
2022/01/04 11:28:52;;;;;;;0.93;0.70;;;18.80;74.50;;;;;;5026625;28;46495;-85
2022/01/04 11:31:33;;;;;;;0.60;0.50;;;18.70;74.50;;;;;;5050899;28;44775;-84
2022/01/04 11:34:10;;;;;;;1.20;0.70;;;19.10;70.40;;;;;;5051183;28;44709;-84
2022/01/04 11:36:42;;;;;;;1.33;0.60;;;18.60;69.80;;;;;;5049597;28;45019;-85
2022/01/04 11:39:33;;;;;;;1.02;0.75;;;20.80;74.30;;;;;;5048162;28;45540;-85
2022/01/04 11:42:03;;;;;;;1.13;0.85;;;18.70;69.50;;;;;;5049455;28;44704;-86
2022/01/04 11:44:32;;;;;;;1.02;0.73;;;18.60;70.30;;;;;;5048158;28;45173;-85
2022/01/04 11:47:08;;;;;;;0.90;0.70;;;18.80;74.90;;;;;;5044145;28;45017;-86
2022/01/04 11:49:36;;;;;;;1.17;0.60;;;18.80;70.00;;;;;;5042946;28;47368;-86
2022/01/04 11:52:06;;;;;;;0.70;0.60;;;18.60;69.80;;;;;;5044676;28;44681;-86
2022/01/04 11:54:37;;;;;;;1.88;0.73;;;18.80;71.40;;;;;;5046831;28;44744;-86
2022/01/04 11:57:17;;;;;;;0.80;0.55;;;18.60;70.60;;;;;;5049510;28;44845;-86
2022/01/04 11:59:47;;;;;;;0.80;0.60;;;18.60;70.10;;;;;;5046951;28;45652;-86
2022/01/04 12:02:31;;;;;;;1.52;0.63;;;18.60;74.30;;;;;;5031780;28;44914;-86
2022/01/04 12:04:59;;;;;;;1.58;0.80;;;18.90;70.70;;;;;;5040405;28;44771;-86
2022/01/04 12:07:48;;;;;;;0.88;0.68;;;18.70;74.20;;;;;;5047588;28;45252;-86
2022/01/04 12:10:38;;;;;;;1.20;0.63;;;18.60;70.00;;;;;;5048438;28;47266;-86
2022/01/04 12:13:09;;;;;;;1.00;0.80;;;18.40;69.80;;;;;;5047202;28;45388;-86
2022/01/04 12:15:54;;;;;;;1.23;0.70;;;17.40;70.80;;;;;;5048753;28;44679;-86
2022/01/04 12:19:03;;;;;;;0.93;0.65;;;18.40;71.40;;;;;;5044401;28;45889;-86
2022/01/04 12:21:39;;;;;;;0.98;0.70;;;18.50;70.00;;;;;;5034824;28;45784;-86
2022/01/04 12:24:09;;;;;;;1.55;0.70;;;18.50;69.90;;;;;;5049937;28;45067;-86
2022/01/04 12:26:39;;;;;;;2.22;0.80;;;18.60;70.70;;;;;;5043684;28;44684;-86
2022/01/04 12:29:31;;;;;;;1.10;0.90;;;18.60;75.20;;;;;;5036218;28;44890;-86
2022/01/04 12:32:03;;;;;;;1.40;0.88;;;20.40;73.30;;;;;;5052981;28;45475;-86
2022/01/04 12:34:36;;;;;;;1.50;0.70;;;18.90;76.80;;;;;;5053908;28;45232;-86
2022/01/04 12:37:07;;;;;;;1.30;1.00;;;20.10;71.60;;;;;;5047224;28;44918;-85
2022/01/04 12:39:41;;;;;;;1.40;0.90;;;18.50;69.80;;;;;;5048583;28;44731;-86
2022/01/04 12:42:18;;;;;;;1.88;1.05;;;18.90;70.80;;;;;;5033269;28;45858;-86
2022/01/04 12:45:06;;;;;;;0.82;0.65;;;18.80;71.20;;;;;;5054627;28;44704;-86
2022/01/04 12:47:42;;;;;;;0.88;0.82;;;18.80;72.80;;;;;;5049964;28;44652;-86
2022/01/04 12:50:22;;;;;;;1.50;0.73;;;18.70;70.70;;;;;;5047409;28;44661;-87
2022/01/04 12:52:52;;;;;;;1.95;0.90;;;20.70;73.10;;;;;;5051626;28;45369;-86
2022/01/04 12:55:24;;;;;;;0.93;0.70;;;17.00;69.50;;;;;;5052942;28;44760;-86
2022/01/04 12:57:56;;;;;;;1.48;0.98;;;16.00;68.00;;;;;;5035999;28;44711;-86
2022/01/04 13:00:30;;;;;;;1.20;0.98;;;19.80;74.10;;;;;;5054419;28;44758;-86
2022/01/04 13:03:03;;;;;;;1.85;0.93;;;19.10;71.00;;;;;;5053620;28;45786;-86
2022/01/04 13:05:35;;;;;;;1.55;1.00;;;18.60;73.80;;;;;;5053118;28;44746;-87
2022/01/04 13:11:11;;;;;;;0.85;0.85;;;20.40;76.10;;;;;;5053401;28;44767;-86
2022/01/04 13:13:44;;;;;;;2.20;1.10;;;17.50;69.60;;;;;;5054168;28;47709;-86
2022/01/04 13:16:21;;;;;;;1.13;0.80;;;18.60;75.00;;;;;;5052787;28;45272;-86
2022/01/04 13:18:49;;;;;;;1.75;1.10;;;20.50;74.00;;;;;;5051956;28;44865;-85
2022/01/04 13:21:17;;;;;;;1.35;0.95;;;18.80;76.60;;;;;;5053662;28;44751;-85
2022/01/04 13:23:46;;;;;;;2.10;1.30;;;21.00;77.50;;;;;;5052106;28;45874;-86
2022/01/04 13:26:14;;;;;;;1.60;1.17;;;18.50;74.80;;;;;;5044980;28;45571;-86
2022/01/04 13:28:45;;;;;;;1.38;1.10;;;18.60;75.50;;;;;;5046140;28;44744;-84
2022/01/04 13:31:23;;;;;;;1.40;1.02;;;20.60;76.80;;;;;;5047027;28;44978;-85
2022/01/04 13:33:55;;;;;;;1.67;1.05;;;19.70;75.40;;;;;;5051163;28;46557;-86
2022/01/04 13:36:23;;;;;;;1.98;1.10;;;19.50;75.40;;;;;;5045350;28;44723;-86
2022/01/04 13:38:51;;;;;;;2.40;1.35;;;18.90;74.80;;;;;;5047697;28;44626;-86
2022/01/04 13:41:33;;;;;;;1.38;1.10;;;16.80;72.10;;;;;;5053399;28;46049;-86
2022/01/04 13:44:06;;;;;;;2.38;1.50;;;17.70;68.90;;;;;;5051039;28;46090;-86
2022/01/04 13:46:34;;;;;;;1.80;0.90;;;19.30;73.40;;;;;;5052422;28;44657;-86
2022/01/04 13:49:04;;;;;;;1.33;1.05;;;19.20;76.40;;;;;;5052609;28;44572;-86
2022/01/04 13:51:36;;;;;;;2.03;1.20;;;18.70;70.10;;;;;;5051423;28;45003;-86
2022/01/04 13:54:18;;;;;;;1.52;1.02;;;18.40;75.60;;;;;;5050602;28;46350;-86
2022/01/04 13:56:46;;;;;;;1.85;1.02;;;18.40;75.80;;;;;;5051835;28;45645;-87
2022/01/04 13:59:22;;;;;;;1.45;1.00;;;18.70;74.50;;;;;;5051996;28;44817;-86
2022/01/04 14:01:54;;;;;;;1.45;0.93;;;20.80;75.90;;;;;;5060087;28;44950;-86
2022/01/04 14:04:24;;;;;;;1.23;0.85;;;18.40;75.60;;;;;;5072805;28;45809;-86
2022/01/04 14:06:55;;;;;;;1.25;0.98;;;18.90;72.60;;;;;;5063622;28;44836;-86
2022/01/04 14:09:25;;;;;;;1.85;0.80;;;18.70;75.80;;;;;;5052058;28;44792;-86
2022/01/04 14:11:57;;;;;;;1.95;1.10;;;20.90;72.70;;;;;;5052724;28;44695;-86
2022/01/04 14:14:29;;;;;;;1.63;1.10;;;18.80;75.90;;;;;;5051867;28;45488;-86